createdAt,value
2022-12-29T00:00:08.745Z,3.52
2022-12-29T00:02:43.207Z,3.82
2022-12-29T00:05:11.731Z,3.68
2022-12-29T00:07:40.324Z,3.95
2022-12-29T00:10:09.197Z,3.30
2022-12-29T00:12:56.076Z,3.66
2022-12-29T00:15:39.453Z,3.59
2022-12-29T00:18:08.471Z,3.37
2022-12-29T00:20:56.730Z,3.77
2022-12-29T00:23:43.481Z,3.94
2022-12-29T00:26:37.889Z,3.90
2022-12-29T00:29:24.413Z,3.98
2022-12-29T00:32:11.115Z,3.44
2022-12-29T00:34:57.832Z,3.78
2022-12-29T00:37:46.506Z,3.49
2022-12-29T00:40:33.441Z,3.89
2022-12-29T00:43:20.717Z,4.00
2022-12-29T00:45:49.243Z,3.66
2022-12-29T00:48:37.533Z,3.96
2022-12-29T00:51:06.241Z,4.14
2022-12-29T00:53:35.970Z,4.03
2022-12-29T00:56:04.525Z,4.06
2022-12-29T00:58:32.874Z,4.05
2022-12-29T01:01:06.347Z,3.97
2022-12-29T01:03:36.618Z,4.27
2022-12-29T01:06:06.600Z,3.81
2022-12-29T01:08:35.788Z,2.57
2022-12-29T01:11:13.543Z,2.94
2022-12-29T01:13:43.762Z,3.59
2022-12-29T01:16:13.278Z,3.97
2022-12-29T01:18:42.848Z,3.98
2022-12-29T01:21:11.163Z,4.02
2022-12-29T01:23:39.513Z,4.11
2022-12-29T01:26:12.039Z,3.81
2022-12-29T01:28:41.467Z,3.98
2022-12-29T01:31:14.352Z,3.89
2022-12-29T01:33:43.428Z,3.72
2022-12-29T01:36:13.596Z,3.51
2022-12-29T01:38:42.828Z,3.61
2022-12-29T01:41:12.379Z,2.86
2022-12-29T01:43:44.579Z,3.00
2022-12-29T01:46:27.888Z,2.94
2022-12-29T01:49:08.850Z,2.65
2022-12-29T01:51:42.643Z,2.96
2022-12-29T01:54:32.916Z,2.82
2022-12-29T01:57:03.787Z,2.91
2022-12-29T01:59:38.177Z,2.87
2022-12-29T02:02:06.658Z,2.52
2022-12-29T02:04:35.790Z,1.92
2022-12-29T02:07:10.356Z,2.30
2022-12-29T02:09:38.628Z,2.54
2022-12-29T02:12:07.327Z,2.43
2022-12-29T02:14:35.861Z,2.03
2022-12-29T02:17:13.766Z,2.45
2022-12-29T02:20:01.357Z,1.45
2022-12-29T02:22:30.598Z,1.50
2022-12-29T02:25:27.407Z,2.21
2022-12-29T02:28:19.975Z,1.27
2022-12-29T02:31:21.519Z,1.20
2022-12-29T02:34:08.769Z,1.78
2022-12-29T02:37:14.918Z,1.77
2022-12-29T02:39:52.195Z,1.74
2022-12-29T02:42:29.472Z,1.47
2022-12-29T02:45:07.532Z,1.72
2022-12-29T02:47:43.615Z,2.11
2022-12-29T02:50:35.171Z,1.81
2022-12-29T02:53:08.285Z,1.94
2022-12-29T02:55:36.677Z,1.64
2022-12-29T02:58:18.041Z,2.27
2022-12-29T03:01:17.106Z,1.86
2022-12-29T03:03:57.267Z,1.77
2022-12-29T03:06:34.762Z,1.21
2022-12-29T03:09:21.882Z,1.46
2022-12-29T03:12:15.333Z,1.04
2022-12-29T03:15:05.016Z,1.63
2022-12-29T03:17:58.500Z,2.11
2022-12-29T03:20:33.167Z,1.95
2022-12-29T03:23:03.365Z,1.37
2022-12-29T03:25:37.135Z,1.33
2022-12-29T03:28:14.213Z,1.84
2022-12-29T03:30:46.133Z,1.11
2022-12-29T03:33:23.623Z,0.68
2022-12-29T03:35:53.058Z,-0.38
2022-12-29T03:38:24.655Z,0.19
2022-12-29T03:40:56.047Z,0.58
2022-12-29T03:43:25.504Z,0.42
2022-12-29T03:45:54.017Z,0.90
2022-12-29T03:48:22.341Z,0.94
2022-12-29T03:50:52.479Z,0.37
2022-12-29T03:53:21.005Z,-0.37
2022-12-29T03:55:49.446Z,-0.20
2022-12-29T03:58:17.935Z,-0.11
2022-12-29T04:01:08.381Z,0.37
2022-12-29T04:03:40.490Z,0.22
2022-12-29T04:06:09.466Z,-0.36
2022-12-29T04:08:47.761Z,0.16
2022-12-29T04:11:16.142Z,-0.03
2022-12-29T04:13:44.644Z,-0.11
2022-12-29T04:16:16.939Z,-0.31
2022-12-29T04:18:45.543Z,0.00
2022-12-29T04:21:14.594Z,-0.20
2022-12-29T04:23:44.668Z,0.25
2022-12-29T04:26:14.695Z,0.72
2022-12-29T04:29:05.933Z,0.30
2022-12-29T04:32:00.189Z,0.42
2022-12-29T04:34:30.734Z,0.47
2022-12-29T04:37:00.826Z,0.19
2022-12-29T04:39:30.473Z,0.13
2022-12-29T04:41:59.086Z,0.33
2022-12-29T04:44:27.821Z,0.96
2022-12-29T04:47:13.654Z,1.42
2022-12-29T04:49:51.789Z,1.70
2022-12-29T04:52:55.789Z,1.04
2022-12-29T04:55:24.186Z,1.41
2022-12-29T04:57:52.663Z,1.29
2022-12-29T05:00:21.808Z,1.76
2022-12-29T05:02:50.464Z,1.69
2022-12-29T05:05:19.231Z,1.98
2022-12-29T05:07:50.873Z,2.03
2022-12-29T05:10:19.616Z,1.88
2022-12-29T05:12:49.997Z,1.82
2022-12-29T05:15:19.387Z,1.97
2022-12-29T05:17:47.719Z,1.95
2022-12-29T05:20:16.444Z,1.89
2022-12-29T05:22:47.544Z,1.80
2022-12-29T05:25:17.062Z,1.81
2022-12-29T05:27:56.006Z,1.42
2022-12-29T05:30:44.015Z,1.41
2022-12-29T05:33:13.108Z,1.37
2022-12-29T05:35:42.248Z,1.72
2022-12-29T05:38:11.517Z,1.31
2022-12-29T05:40:40.345Z,1.59
2022-12-29T05:43:20.534Z,1.68
2022-12-29T05:46:10.113Z,1.26
2022-12-29T05:49:01.606Z,1.26
2022-12-29T05:51:50.164Z,1.35
2022-12-29T05:54:18.747Z,1.75
2022-12-29T05:56:47.670Z,1.62
2022-12-29T05:59:16.174Z,1.52
2022-12-29T06:01:44.766Z,1.44
2022-12-29T06:04:13.943Z,1.29
2022-12-29T06:06:42.907Z,1.52
2022-12-29T06:09:18.609Z,1.30
2022-12-29T06:11:47.000Z,1.11
2022-12-29T06:14:15.775Z,1.18
2022-12-29T06:16:44.418Z,1.12
2022-12-29T06:19:15.401Z,1.48
2022-12-29T06:21:43.849Z,1.39
2022-12-29T06:24:12.555Z,1.48
2022-12-29T06:26:41.460Z,1.29
2022-12-29T06:29:09.910Z,1.22
2022-12-29T06:31:38.515Z,1.64
2022-12-29T06:34:08.643Z,1.88
2022-12-29T06:36:38.631Z,1.90
2022-12-29T06:39:07.311Z,2.06
2022-12-29T06:41:36.512Z,2.30
2022-12-29T06:44:23.468Z,2.18
2022-12-29T06:46:55.024Z,2.36
2022-12-29T06:49:23.323Z,2.53
2022-12-29T06:51:51.832Z,2.57
2022-12-29T06:54:20.073Z,2.86
2022-12-29T06:56:48.676Z,3.04
2022-12-29T06:59:17.970Z,3.34
2022-12-29T07:01:46.886Z,3.89
2022-12-29T07:04:15.487Z,4.31
2022-12-29T07:06:43.891Z,4.81
2022-12-29T07:09:12.590Z,5.23
2022-12-29T07:11:40.982Z,5.32
2022-12-29T07:14:09.621Z,5.21
2022-12-29T07:16:38.450Z,5.09
2022-12-29T07:19:07.116Z,4.91
2022-12-29T07:21:35.720Z,4.89
2022-12-29T07:24:04.481Z,4.89
2022-12-29T07:26:36.301Z,5.00
2022-12-29T07:29:05.561Z,5.48
2022-12-29T07:31:34.087Z,5.79
2022-12-29T07:34:02.684Z,6.23
2022-12-29T07:36:54.163Z,6.27
2022-12-29T07:39:55.423Z,5.93
2022-12-29T07:42:58.465Z,5.70
2022-12-29T07:49:04.778Z,5.31
2022-12-29T07:51:37.519Z,5.14
2022-12-29T07:54:06.032Z,5.54
2022-12-29T07:56:34.306Z,5.57
2022-12-29T07:59:02.829Z,6.03
2022-12-29T08:01:31.521Z,6.46
2022-12-29T08:04:00.025Z,6.30
2022-12-29T08:06:28.591Z,6.81
2022-12-29T08:08:57.532Z,7.21
2022-12-29T08:11:25.998Z,7.37
2022-12-29T08:13:54.496Z,7.97
2022-12-29T08:16:22.981Z,7.86
2022-12-29T08:18:51.658Z,7.53
2022-12-29T08:21:20.326Z,7.62
2022-12-29T08:23:49.085Z,7.63
2022-12-29T08:26:17.562Z,7.75
2022-12-29T08:28:45.894Z,8.32
2022-12-29T08:31:15.812Z,9.07
2022-12-29T08:33:44.125Z,9.87
2022-12-29T08:36:12.728Z,10.63
2022-12-29T08:38:41.108Z,11.54
2022-12-29T08:41:09.630Z,12.38
2022-12-29T08:43:38.023Z,12.80
2022-12-29T08:46:06.539Z,13.08
2022-12-29T08:48:34.945Z,13.99
2022-12-29T08:51:03.439Z,15.45
2022-12-29T08:53:32.448Z,16.78
2022-12-29T08:56:05.160Z,18.05
2022-12-29T08:58:44.198Z,19.35
2022-12-29T09:01:13.007Z,20.31
2022-12-29T09:06:32.621Z,22.21
2022-12-29T09:09:03.551Z,22.92
2022-12-29T09:11:32.053Z,23.52
2022-12-29T09:14:00.862Z,23.67
2022-12-29T09:16:29.683Z,24.18
2022-12-29T09:18:58.322Z,24.47
2022-12-29T09:21:27.342Z,24.61
2022-12-29T09:23:56.854Z,25.02
2022-12-29T09:26:25.348Z,25.37
2022-12-29T09:28:53.723Z,25.62
2022-12-29T09:31:22.196Z,25.32
2022-12-29T09:33:50.614Z,24.32
2022-12-29T09:36:19.074Z,22.98
2022-12-29T09:38:47.483Z,21.77
2022-12-29T09:41:22.609Z,20.41
2022-12-29T09:43:57.360Z,19.24
2022-12-29T09:46:30.810Z,18.36
2022-12-29T09:49:09.997Z,16.49
2022-12-29T09:51:39.165Z,16.20
2022-12-29T09:54:22.784Z,15.04
2022-12-29T09:56:51.344Z,14.53
2022-12-29T09:59:21.913Z,14.21
2022-12-29T10:02:02.782Z,13.76
2022-12-29T10:04:31.274Z,13.45
2022-12-29T10:07:28.644Z,13.54
2022-12-29T10:10:05.158Z,12.94
2022-12-29T10:12:39.546Z,13.24
2022-12-29T10:15:17.708Z,13.01
2022-12-29T10:18:31.990Z,12.87
2022-12-29T10:21:10.131Z,12.57
2022-12-29T10:23:50.133Z,12.64
2022-12-29T10:26:27.887Z,12.94
2022-12-29T10:29:07.104Z,12.42
2022-12-29T10:31:58.067Z,12.53
2022-12-29T10:34:40.125Z,12.86
2022-12-29T10:37:33.774Z,12.59
2022-12-29T10:40:04.344Z,11.24
2022-12-29T10:42:44.645Z,11.92
2022-12-29T10:45:17.156Z,11.90
2022-12-29T10:47:57.482Z,12.20
2022-12-29T10:50:26.724Z,12.47
2022-12-29T10:52:55.358Z,12.05
2022-12-29T10:55:29.273Z,12.47
2022-12-29T10:57:58.576Z,11.75
2022-12-29T11:00:26.922Z,12.40
2022-12-29T11:03:23.354Z,13.06
2022-12-29T11:05:56.898Z,12.00
2022-12-29T11:08:27.206Z,12.58
2022-12-29T11:11:03.381Z,12.73
2022-12-29T11:13:38.871Z,12.83
2022-12-29T11:16:08.148Z,13.06
2022-12-29T11:18:41.080Z,12.74
2022-12-29T11:21:41.536Z,12.99
2022-12-29T11:24:24.714Z,12.77
2022-12-29T11:26:58.845Z,11.53
2022-12-29T11:29:38.207Z,10.95
2022-12-29T11:32:29.078Z,11.67
2022-12-29T11:35:02.418Z,11.40
2022-12-29T11:37:35.767Z,11.88
2022-12-29T11:40:09.424Z,12.42
2022-12-29T11:42:49.212Z,13.18
2022-12-29T11:45:19.629Z,13.36
2022-12-29T11:47:59.210Z,13.19
2022-12-29T11:50:38.830Z,13.64
2022-12-29T11:53:07.706Z,13.71
2022-12-29T11:55:36.013Z,13.83
2022-12-29T11:58:04.603Z,13.88
2022-12-29T12:00:34.064Z,13.81
2022-12-29T12:03:26.376Z,13.93
2022-12-29T12:05:57.660Z,13.79
2022-12-29T12:08:36.897Z,13.88
2022-12-29T12:11:08.875Z,13.81
2022-12-29T12:14:03.893Z,13.82
2022-12-29T12:16:56.485Z,13.54
2022-12-29T12:19:28.016Z,13.11
2022-12-29T12:22:15.275Z,13.39
2022-12-29T12:25:06.739Z,12.94
2022-12-29T12:27:53.051Z,13.24
2022-12-29T12:30:26.159Z,12.88
2022-12-29T12:33:15.237Z,12.78
2022-12-29T12:36:01.580Z,12.84
2022-12-29T12:38:50.786Z,12.68
2022-12-29T12:41:46.721Z,12.29
2022-12-29T12:44:39.915Z,11.70
2022-12-29T12:47:34.335Z,10.85
2022-12-29T12:50:18.752Z,10.49
2022-12-29T12:53:27.617Z,10.93
2022-12-29T12:56:05.524Z,10.40
2022-12-29T12:58:37.835Z,9.88
2022-12-29T13:01:16.094Z,9.82
2022-12-29T13:03:54.927Z,10.41
2022-12-29T13:06:54.063Z,8.98
2022-12-29T13:09:28.589Z,10.27
2022-12-29T13:12:00.134Z,9.89
2022-12-29T13:14:52.733Z,9.92
2022-12-29T13:17:38.782Z,9.78
2022-12-29T13:20:12.862Z,9.48
2022-12-29T13:23:02.894Z,9.39
2022-12-29T13:25:42.976Z,9.52
2022-12-29T13:28:27.731Z,9.33
2022-12-29T13:31:19.789Z,9.08
2022-12-29T13:34:03.275Z,9.22
2022-12-29T13:36:44.583Z,9.53
2022-12-29T13:39:21.069Z,10.10
2022-12-29T13:41:55.017Z,10.50
2022-12-29T13:44:37.259Z,10.90
2022-12-29T13:47:24.053Z,11.01
2022-12-29T13:49:52.566Z,10.37
2022-12-29T13:52:36.387Z,11.18
2022-12-29T13:55:23.063Z,11.69
2022-12-29T13:58:14.019Z,11.57
2022-12-29T14:01:13.337Z,11.52
2022-12-29T14:03:49.553Z,11.25
2022-12-29T14:06:22.067Z,10.51
2022-12-29T14:08:51.514Z,10.94
2022-12-29T14:11:22.831Z,11.13
2022-12-29T14:13:51.309Z,11.23
2022-12-29T14:16:26.216Z,11.29
2022-12-29T14:18:55.612Z,11.09
2022-12-29T14:21:29.123Z,11.54
2022-12-29T14:24:21.226Z,11.72
2022-12-29T14:26:49.891Z,11.71
2022-12-29T14:29:30.173Z,11.93
2022-12-29T14:31:59.012Z,11.95
2022-12-29T14:34:30.150Z,11.80
2022-12-29T14:37:00.788Z,11.87
2022-12-29T14:39:35.137Z,11.67
2022-12-29T14:42:07.517Z,11.79
2022-12-29T14:44:36.245Z,11.61
2022-12-29T14:47:09.521Z,11.48
2022-12-29T14:49:43.272Z,11.18
2022-12-29T14:52:20.577Z,11.13
2022-12-29T14:54:59.100Z,11.02
2022-12-29T14:57:39.226Z,11.03
2022-12-29T15:00:18.149Z,10.66
2022-12-29T15:02:50.231Z,10.67
2022-12-29T15:05:31.847Z,10.43
2022-12-29T15:08:00.503Z,10.29
2022-12-29T15:10:32.673Z,10.04
2022-12-29T15:13:06.023Z,10.12
2022-12-29T15:15:38.718Z,10.03
2022-12-29T15:18:27.535Z,9.93
2022-12-29T15:21:06.014Z,9.90
2022-12-29T15:23:35.381Z,8.91
2022-12-29T15:26:06.409Z,8.98
2022-12-29T15:28:42.562Z,8.84
2022-12-29T15:31:30.263Z,8.49
2022-12-29T15:34:21.438Z,8.82
2022-12-29T15:36:51.581Z,8.65
2022-12-29T15:39:27.986Z,8.58
2022-12-29T15:42:24.437Z,8.51
2022-12-29T15:44:57.926Z,8.28
2022-12-29T15:47:31.904Z,8.44
2022-12-29T15:50:06.827Z,7.84
2022-12-29T15:52:35.383Z,8.26
2022-12-29T15:55:04.923Z,8.03
2022-12-29T15:57:44.723Z,7.84
2022-12-29T16:00:31.277Z,7.84
2022-12-29T16:03:04.159Z,7.82
2022-12-29T16:05:37.127Z,7.39
2022-12-29T16:08:22.484Z,7.66
2022-12-29T16:10:51.882Z,7.26
2022-12-29T16:13:35.518Z,7.29
2022-12-29T16:16:10.936Z,7.55
2022-12-29T16:18:39.728Z,7.04
2022-12-29T16:21:34.441Z,6.98
2022-12-29T16:24:06.920Z,7.23
2022-12-29T16:26:35.516Z,6.98
2022-12-29T16:29:06.675Z,6.98
2022-12-29T16:31:37.148Z,6.64
2022-12-29T16:34:30.937Z,6.57
2022-12-29T16:37:06.738Z,6.47
2022-12-29T16:39:40.901Z,5.63
2022-12-29T16:42:35.306Z,5.77
2022-12-29T16:45:23.924Z,5.53
2022-12-29T16:48:08.306Z,5.15
2022-12-29T16:50:40.392Z,5.58
2022-12-29T16:53:25.644Z,5.49
2022-12-29T16:55:55.012Z,6.02
2022-12-29T16:58:26.229Z,6.01
2022-12-29T17:00:58.683Z,5.86
2022-12-29T17:03:34.708Z,6.00
2022-12-29T17:06:04.279Z,5.73
2022-12-29T17:08:42.743Z,5.77
2022-12-29T17:11:51.262Z,5.65
2022-12-29T17:14:29.283Z,5.57
2022-12-29T17:16:58.211Z,5.46
2022-12-29T17:19:32.767Z,5.52
2022-12-29T17:22:01.972Z,5.77
2022-12-29T17:24:30.928Z,5.55
2022-12-29T17:27:01.205Z,5.36
2022-12-29T17:29:38.209Z,5.44
2022-12-29T17:32:08.609Z,5.47
2022-12-29T17:34:37.639Z,5.11
2022-12-29T17:37:27.457Z,5.39
2022-12-29T17:39:56.308Z,5.13
2022-12-29T17:42:26.388Z,4.83
2022-12-29T17:44:55.737Z,5.06
2022-12-29T17:47:24.618Z,5.42
2022-12-29T17:49:53.556Z,4.89
2022-12-29T17:52:25.456Z,4.46
2022-12-29T17:54:57.988Z,4.21
2022-12-29T17:57:26.989Z,4.32
2022-12-29T17:59:56.623Z,4.66
2022-12-29T18:02:32.651Z,4.74
2022-12-29T18:05:01.542Z,4.77
2022-12-29T18:07:35.681Z,4.44
2022-12-29T18:10:05.498Z,4.60
2022-12-29T18:12:41.466Z,4.70
2022-12-29T18:15:24.359Z,4.24
2022-12-29T18:18:01.787Z,4.35
2022-12-29T18:20:31.275Z,4.80
2022-12-29T18:23:05.307Z,5.38
2022-12-29T18:25:54.366Z,5.16
2022-12-29T18:28:24.247Z,5.37
2022-12-29T18:30:53.826Z,5.50
2022-12-29T18:33:26.288Z,5.80
2022-12-29T18:36:02.305Z,5.75
2022-12-29T18:38:30.824Z,5.93
2022-12-29T18:41:00.050Z,5.59
2022-12-29T18:43:29.012Z,5.35
2022-12-29T18:45:58.311Z,5.25
2022-12-29T18:48:28.387Z,5.40
2022-12-29T18:50:57.869Z,5.28
2022-12-29T18:53:26.693Z,5.18
2022-12-29T18:55:58.973Z,5.39
2022-12-29T18:58:33.944Z,5.27
2022-12-29T19:01:04.286Z,5.35
2022-12-29T19:03:33.246Z,5.00
2022-12-29T19:06:01.864Z,4.25
2022-12-29T19:08:30.733Z,4.83
2022-12-29T19:11:03.725Z,4.51
2022-12-29T19:13:32.350Z,4.40
2022-12-29T19:16:02.288Z,4.74
2022-12-29T19:18:53.357Z,4.79
2022-12-29T19:21:20.595Z,4.36
2022-12-29T19:23:49.670Z,4.31
2022-12-29T19:26:35.392Z,4.82
2022-12-29T19:29:07.778Z,4.80
2022-12-29T19:31:39.055Z,4.68
2022-12-29T19:34:07.618Z,4.97
2022-12-29T19:36:38.583Z,4.82
2022-12-29T19:39:08.741Z,4.55
2022-12-29T19:41:38.739Z,4.56
2022-12-29T19:44:08.979Z,4.63
2022-12-29T19:46:37.837Z,4.24
2022-12-29T19:49:06.998Z,4.51
2022-12-29T19:51:35.730Z,4.15
2022-12-29T19:54:04.841Z,4.20
2022-12-29T19:56:34.536Z,3.42
2022-12-29T19:59:06.404Z,3.85
2022-12-29T20:01:35.420Z,3.49
2022-12-29T20:04:04.493Z,3.78
2022-12-29T20:06:32.940Z,3.76
2022-12-29T20:09:03.062Z,3.67
2022-12-29T20:11:32.365Z,4.09
2022-12-29T20:14:01.342Z,4.01
2022-12-29T20:16:33.325Z,4.08
2022-12-29T20:19:01.843Z,4.21
2022-12-29T20:21:32.500Z,3.80
2022-12-29T20:24:01.217Z,3.86
2022-12-29T20:26:31.353Z,3.98
2022-12-29T20:29:01.268Z,3.71
2022-12-29T20:31:32.870Z,4.07
2022-12-29T20:34:02.260Z,4.10
2022-12-29T20:36:32.837Z,2.47
2022-12-29T20:39:04.773Z,3.32
2022-12-29T20:41:33.377Z,3.50
2022-12-29T20:44:02.322Z,3.54
2022-12-29T20:46:36.710Z,3.91
2022-12-29T20:49:11.733Z,3.85
2022-12-29T20:52:05.178Z,3.93
2022-12-29T20:54:30.751Z,3.34
2022-12-29T20:57:03.555Z,3.68
2022-12-29T20:59:32.363Z,3.78
2022-12-29T21:02:01.038Z,2.95
2022-12-29T21:04:50.237Z,3.18
2022-12-29T21:07:20.352Z,3.52
2022-12-29T21:09:49.673Z,3.55
2022-12-29T21:12:20.936Z,3.21
2022-12-29T21:14:49.428Z,3.38
2022-12-29T21:17:19.064Z,3.10
2022-12-29T21:19:47.701Z,3.43
2022-12-29T21:22:16.283Z,3.32
2022-12-29T21:24:44.644Z,3.83
2022-12-29T21:27:13.070Z,3.68
2022-12-29T21:29:41.532Z,3.81
2022-12-29T21:32:09.987Z,3.95
2022-12-29T21:34:38.467Z,3.89
2022-12-29T21:37:06.920Z,3.68
2022-12-29T21:39:35.418Z,3.82
2022-12-29T21:42:04.008Z,3.51
2022-12-29T21:44:50.678Z,3.42
2022-12-29T21:47:19.287Z,3.91
2022-12-29T21:49:48.120Z,3.77
2022-12-29T21:52:16.618Z,3.25
2022-12-29T21:55:05.344Z,3.46
2022-12-29T21:57:52.293Z,3.23
2022-12-29T22:00:39.120Z,3.53
2022-12-29T22:03:26.139Z,3.43
2022-12-29T22:06:13.081Z,3.38
2022-12-29T22:09:00.583Z,3.57
2022-12-29T22:11:47.582Z,3.31
2022-12-29T22:14:15.990Z,3.49
2022-12-29T22:16:44.543Z,2.98
2022-12-29T22:19:12.893Z,3.09
2022-12-29T22:21:41.526Z,3.15
2022-12-29T22:24:10.253Z,3.28
2022-12-29T22:26:38.678Z,3.50
2022-12-29T22:29:07.127Z,2.73
2022-12-29T22:31:35.630Z,2.93
2022-12-29T22:34:04.475Z,2.75
2022-12-29T22:36:33.684Z,2.80
2022-12-29T22:39:02.262Z,2.88
2022-12-29T22:41:30.790Z,2.32
2022-12-29T22:43:59.247Z,2.30
2022-12-29T22:46:27.897Z,2.58
2022-12-29T22:48:57.465Z,2.23
2022-12-29T22:51:26.617Z,2.17
2022-12-29T22:53:55.121Z,1.48
2022-12-29T22:56:24.370Z,1.93
2022-12-29T22:58:53.227Z,1.88
2022-12-29T23:01:22.972Z,2.07
2022-12-29T23:03:51.876Z,1.56
2022-12-29T23:06:20.430Z,1.89
2022-12-29T23:08:48.975Z,1.78
2022-12-29T23:11:17.537Z,1.75
2022-12-29T23:13:46.388Z,2.12
2022-12-29T23:16:15.824Z,1.89
2022-12-29T23:18:44.856Z,2.10
2022-12-29T23:21:13.930Z,2.09
2022-12-29T23:23:54.098Z,1.85
2022-12-29T23:26:27.375Z,1.61
2022-12-29T23:28:59.871Z,1.94
2022-12-29T23:31:29.399Z,2.11
2022-12-29T23:34:01.575Z,2.38
2022-12-29T23:36:30.267Z,1.69
2022-12-29T23:38:58.888Z,1.53
2022-12-29T23:41:27.581Z,1.79
2022-12-29T23:43:56.223Z,2.14
2022-12-29T23:46:25.869Z,2.22
2022-12-29T23:48:54.421Z,2.36
2022-12-29T23:51:22.857Z,2.47
2022-12-29T23:53:51.484Z,2.52
2022-12-29T23:56:21.543Z,2.61
2022-12-29T23:58:50.428Z,2.74
